createdAt,value
2022-12-25T00:00:18.403Z,47.92
2022-12-25T00:02:51.121Z,47.95
2022-12-25T00:05:18.741Z,48.35
2022-12-25T00:07:46.168Z,48.19
2022-12-25T00:10:13.596Z,48.10
2022-12-25T00:12:41.002Z,48.29
2022-12-25T00:15:08.877Z,48.23
2022-12-25T00:17:36.201Z,47.81
2022-12-25T00:20:03.960Z,47.87
2022-12-25T00:22:31.324Z,47.81
2022-12-25T00:24:58.707Z,48.15
2022-12-25T00:27:26.107Z,48.11
2022-12-25T00:29:53.502Z,48.22
2022-12-25T00:32:20.841Z,48.09
2022-12-25T00:34:48.251Z,47.89
2022-12-25T00:37:15.756Z,48.09
2022-12-25T00:39:43.126Z,47.84
2022-12-25T00:42:20.207Z,47.64
2022-12-25T00:44:48.849Z,48.23
2022-12-25T00:47:18.298Z,48.05
2022-12-25T00:49:45.939Z,47.83
2022-12-25T00:52:13.530Z,48.32
2022-12-25T00:54:40.906Z,47.99
2022-12-25T00:57:08.318Z,47.83
2022-12-25T00:59:35.760Z,47.78
2022-12-25T01:02:22.056Z,48.06
2022-12-25T01:04:52.052Z,47.96
2022-12-25T01:07:20.247Z,47.69
2022-12-25T01:10:06.722Z,47.52
2022-12-25T01:12:37.025Z,47.99
2022-12-25T01:15:07.269Z,47.92
2022-12-25T01:17:34.968Z,47.86
2022-12-25T01:20:02.831Z,48.07
2022-12-25T01:22:30.245Z,48.13
2022-12-25T01:24:57.596Z,48.13
2022-12-25T01:27:25.352Z,48.16
2022-12-25T01:29:52.686Z,48.03
2022-12-25T01:32:20.038Z,48.05
2022-12-25T01:34:53.771Z,48.09
2022-12-25T01:37:24.875Z,48.13
2022-12-25T01:39:52.273Z,48.36
2022-12-25T01:42:23.762Z,47.81
2022-12-25T01:44:51.241Z,47.94
2022-12-25T01:47:18.890Z,48.62
2022-12-25T01:49:49.958Z,48.17
2022-12-25T01:52:25.020Z,47.96
2022-12-25T01:54:57.715Z,47.81
2022-12-25T01:57:34.712Z,47.82
2022-12-25T02:00:02.505Z,47.92
2022-12-25T02:02:32.632Z,48.11
2022-12-25T02:05:16.083Z,47.99
2022-12-25T02:07:45.404Z,47.84
2022-12-25T02:10:13.076Z,48.26
2022-12-25T02:12:41.350Z,48.33
2022-12-25T02:15:13.382Z,48.09
2022-12-25T02:17:55.955Z,48.30
2022-12-25T02:20:43.217Z,47.96
2022-12-25T02:23:13.275Z,47.91
2022-12-25T02:25:59.159Z,47.88
2022-12-25T02:28:37.104Z,48.00
2022-12-25T02:31:38.535Z,48.04
2022-12-25T02:34:14.499Z,47.81
2022-12-25T02:37:06.630Z,47.63
2022-12-25T02:39:57.771Z,47.90
2022-12-25T02:42:53.189Z,47.87
2022-12-25T02:45:48.582Z,48.38
2022-12-25T02:48:37.342Z,48.08
2022-12-25T02:51:26.791Z,48.09
2022-12-25T02:54:16.330Z,48.27
2022-12-25T02:57:07.949Z,48.16
2022-12-25T02:59:58.623Z,48.07
2022-12-25T03:02:48.252Z,47.99
2022-12-25T03:05:39.908Z,47.94
2022-12-25T03:08:12.543Z,48.14
2022-12-25T03:11:05.644Z,47.93
2022-12-25T03:13:39.084Z,47.75
2022-12-25T03:16:26.080Z,47.85
2022-12-25T03:18:55.792Z,47.78
2022-12-25T03:21:42.035Z,47.73
2022-12-25T03:24:28.256Z,48.23
2022-12-25T03:26:57.996Z,48.25
2022-12-25T03:29:49.057Z,47.97
2022-12-25T03:32:29.090Z,47.75
2022-12-25T03:35:24.380Z,47.99
2022-12-25T03:38:29.960Z,48.08
2022-12-25T03:41:25.136Z,47.71
2022-12-25T03:44:19.275Z,48.00
2022-12-25T03:47:15.596Z,47.90
2022-12-25T03:50:14.348Z,48.07
2022-12-25T03:53:03.106Z,47.72
2022-12-25T03:55:50.580Z,47.97
2022-12-25T03:58:41.006Z,47.74
2022-12-25T04:01:27.121Z,47.81
2022-12-25T04:04:13.463Z,47.50
2022-12-25T04:07:00.130Z,47.85
2022-12-25T04:09:46.765Z,47.88
2022-12-25T04:12:32.539Z,47.58
2022-12-25T04:15:18.785Z,47.78
2022-12-25T04:18:05.205Z,47.81
2022-12-25T04:20:51.330Z,47.83
2022-12-25T04:23:37.412Z,48.04
2022-12-25T04:26:23.217Z,47.30
2022-12-25T04:29:09.192Z,47.67
2022-12-25T04:31:55.144Z,47.60
2022-12-25T04:34:41.376Z,47.63
2022-12-25T04:37:08.735Z,47.55
2022-12-25T04:39:36.125Z,47.40
2022-12-25T04:42:03.595Z,47.53
2022-12-25T04:44:30.956Z,47.50
2022-12-25T04:46:58.478Z,47.70
2022-12-25T04:49:26.044Z,47.89
2022-12-25T04:51:53.440Z,47.47
2022-12-25T04:54:20.839Z,47.72
2022-12-25T04:56:48.203Z,47.53
2022-12-25T04:59:15.649Z,47.66
2022-12-25T05:01:43.195Z,47.54
2022-12-25T05:04:10.789Z,47.16
2022-12-25T05:06:39.008Z,47.66
2022-12-25T05:09:06.689Z,47.43
2022-12-25T05:11:34.143Z,47.16
2022-12-25T05:14:01.649Z,47.31
2022-12-25T05:16:29.136Z,47.57
2022-12-25T05:18:56.996Z,47.18
2022-12-25T05:21:24.365Z,47.27
2022-12-25T05:23:53.150Z,47.51
2022-12-25T05:26:23.224Z,47.53
2022-12-25T05:28:51.032Z,47.51
2022-12-25T05:31:19.303Z,47.26
2022-12-25T05:33:50.443Z,47.62
2022-12-25T05:36:18.583Z,47.41
2022-12-25T05:38:46.102Z,47.39
2022-12-25T05:41:13.535Z,47.17
2022-12-25T05:43:41.075Z,47.43
2022-12-25T05:46:10.262Z,47.21
2022-12-25T05:48:38.085Z,47.37
2022-12-25T05:51:08.300Z,47.53
2022-12-25T05:53:37.799Z,47.11
2022-12-25T05:56:07.536Z,47.36
2022-12-25T05:58:37.238Z,47.18
2022-12-25T06:01:10.912Z,46.97
2022-12-25T06:03:38.337Z,47.28
2022-12-25T06:06:07.330Z,47.19
2022-12-25T06:08:35.175Z,47.12
2022-12-25T06:11:04.545Z,47.33
2022-12-25T06:13:32.974Z,47.39
2022-12-25T06:16:04.206Z,47.29
2022-12-25T06:18:31.744Z,47.17
2022-12-25T06:20:59.120Z,46.94
2022-12-25T06:23:26.524Z,47.41
2022-12-25T06:25:53.879Z,47.07
2022-12-25T06:28:21.257Z,47.35
2022-12-25T06:30:48.602Z,47.44
2022-12-25T06:33:15.984Z,47.44
2022-12-25T06:35:43.322Z,47.23
2022-12-25T06:38:10.732Z,46.89
2022-12-25T06:40:38.098Z,46.91
2022-12-25T06:43:05.518Z,46.96
2022-12-25T06:45:35.896Z,47.01
2022-12-25T06:48:03.440Z,47.28
2022-12-25T06:50:30.834Z,47.02
2022-12-25T06:52:58.325Z,47.22
2022-12-25T06:55:25.771Z,46.62
2022-12-25T06:57:53.174Z,47.01
2022-12-25T07:00:20.924Z,47.17
2022-12-25T07:02:49.547Z,47.02
2022-12-25T07:05:17.097Z,47.34
2022-12-25T07:07:44.477Z,47.02
2022-12-25T07:10:11.893Z,46.96
2022-12-25T07:12:39.304Z,47.13
2022-12-25T07:15:07.382Z,47.02
2022-12-25T07:17:35.709Z,47.39
2022-12-25T07:20:03.252Z,47.21
2022-12-25T07:22:30.694Z,47.34
2022-12-25T07:24:58.154Z,47.43
2022-12-25T07:27:25.603Z,47.42
2022-12-25T07:29:52.940Z,47.66
2022-12-25T07:32:20.251Z,47.73
2022-12-25T07:34:47.552Z,47.90
2022-12-25T07:37:15.043Z,48.11
2022-12-25T07:39:42.403Z,47.95
2022-12-25T07:42:09.770Z,47.82
2022-12-25T07:44:38.434Z,47.90
2022-12-25T07:47:05.789Z,48.14
2022-12-25T07:49:33.208Z,48.23
2022-12-25T07:52:00.641Z,48.29
2022-12-25T07:54:27.971Z,48.23
2022-12-25T07:56:55.403Z,48.67
2022-12-25T07:59:22.737Z,48.65
2022-12-25T08:01:50.601Z,49.18
2022-12-25T08:04:18.257Z,48.74
2022-12-25T08:06:45.801Z,48.28
2022-12-25T08:09:13.452Z,48.22
2022-12-25T08:11:45.846Z,48.14
2022-12-25T08:14:14.209Z,47.77
2022-12-25T08:16:42.375Z,47.93
2022-12-25T08:19:10.552Z,47.47
2022-12-25T08:21:38.274Z,47.38
2022-12-25T08:24:05.927Z,47.42
2022-12-25T08:26:33.492Z,47.39
2022-12-25T08:29:00.813Z,47.24
2022-12-25T08:31:30.314Z,47.25
2022-12-25T08:33:59.080Z,47.57
2022-12-25T08:36:27.265Z,47.73
2022-12-25T08:39:02.182Z,47.35
2022-12-25T08:41:31.442Z,47.61
2022-12-25T08:43:58.955Z,47.55
2022-12-25T08:46:26.417Z,47.63
2022-12-25T08:48:53.837Z,47.33
2022-12-25T08:51:22.837Z,47.20
2022-12-25T08:53:52.578Z,47.54
2022-12-25T08:56:20.282Z,47.37
2022-12-25T08:58:47.671Z,47.33
2022-12-25T09:01:15.238Z,47.42
2022-12-25T09:03:43.381Z,47.01
2022-12-25T09:06:13.450Z,47.53
2022-12-25T09:08:48.068Z,47.42
2022-12-25T09:11:19.434Z,47.32
2022-12-25T09:13:47.944Z,47.16
2022-12-25T09:16:18.926Z,47.49
2022-12-25T09:18:46.550Z,47.65
2022-12-25T09:21:16.113Z,47.51
2022-12-25T09:23:44.063Z,47.46
2022-12-25T09:26:14.260Z,47.38
2022-12-25T09:28:46.796Z,47.72
2022-12-25T09:31:16.217Z,47.42
2022-12-25T09:33:43.786Z,47.10
2022-12-25T09:36:11.429Z,47.47
2022-12-25T09:38:39.127Z,47.27
2022-12-25T09:41:34.009Z,47.12
2022-12-25T09:44:06.599Z,47.25
2022-12-25T09:46:47.350Z,47.41
2022-12-25T09:49:23.889Z,47.27
2022-12-25T09:52:02.890Z,47.79
2022-12-25T09:54:59.251Z,47.80
2022-12-25T09:57:26.693Z,48.43
2022-12-25T09:59:55.996Z,48.69
2022-12-25T10:02:37.056Z,48.48
2022-12-25T10:05:16.847Z,48.63
2022-12-25T10:07:57.226Z,48.80
2022-12-25T10:10:39.921Z,48.54
2022-12-25T10:13:19.036Z,49.09
2022-12-25T10:15:52.125Z,49.05
2022-12-25T10:19:07.426Z,49.11
2022-12-25T10:21:36.531Z,48.70
2022-12-25T10:24:11.343Z,49.11
2022-12-25T10:26:38.950Z,49.22
2022-12-25T10:29:19.366Z,49.15
2022-12-25T10:31:49.335Z,49.86
2022-12-25T10:34:17.148Z,49.72
2022-12-25T10:36:46.287Z,49.78
2022-12-25T10:39:19.946Z,50.00
2022-12-25T10:42:26.954Z,50.26
2022-12-25T10:45:02.307Z,49.83
2022-12-25T10:47:32.967Z,50.89
2022-12-25T10:50:07.786Z,50.70
2022-12-25T10:52:35.909Z,50.72
2022-12-25T10:55:13.391Z,50.32
2022-12-25T11:00:32.846Z,66.20
2022-12-25T11:03:00.985Z,64.64
2022-12-25T11:05:34.187Z,64.10
2022-12-25T11:08:03.222Z,63.42
2022-12-25T11:10:34.579Z,63.28
2022-12-25T11:13:03.219Z,62.82
2022-12-25T11:15:30.536Z,62.30
2022-12-25T11:17:58.061Z,62.07
2022-12-25T11:20:26.283Z,61.57
2022-12-25T11:22:53.672Z,60.77
2022-12-25T11:25:26.110Z,60.48
2022-12-25T11:28:13.442Z,60.03
2022-12-25T11:30:41.359Z,60.12
2022-12-25T11:33:12.532Z,60.35
2022-12-25T11:35:49.878Z,59.88
2022-12-25T11:38:17.342Z,59.51
2022-12-25T11:40:49.158Z,59.78
2022-12-25T11:43:16.455Z,59.73
2022-12-25T11:45:53.036Z,59.83
2022-12-25T11:48:31.703Z,59.66
2022-12-25T11:51:02.323Z,59.73
2022-12-25T11:53:37.390Z,59.22
2022-12-25T11:56:20.328Z,59.41
2022-12-25T11:58:54.946Z,59.42
2022-12-25T12:01:37.304Z,59.53
2022-12-25T12:04:18.460Z,59.26
2022-12-25T12:06:54.158Z,59.06
2022-12-25T12:09:43.504Z,59.07
2022-12-25T12:12:26.806Z,58.85
2022-12-25T12:15:06.958Z,59.10
2022-12-25T12:17:34.598Z,59.00
2022-12-25T12:20:29.577Z,58.92
2022-12-25T12:22:58.035Z,58.45
2022-12-25T12:25:26.104Z,58.60
2022-12-25T12:28:04.839Z,58.42
2022-12-25T12:30:35.664Z,58.42
2022-12-25T12:33:06.756Z,58.46
2022-12-25T12:35:38.748Z,58.02
2022-12-25T12:38:12.719Z,58.31
2022-12-25T12:40:44.614Z,58.31
2022-12-25T12:43:43.162Z,58.16
2022-12-25T12:46:23.061Z,58.18
2022-12-25T12:49:09.099Z,58.00
2022-12-25T12:51:38.604Z,58.02
2022-12-25T12:54:23.297Z,57.80
2022-12-25T12:57:00.962Z,57.69
2022-12-25T12:59:38.920Z,57.44
2022-12-25T13:02:26.110Z,57.64
2022-12-25T13:05:08.117Z,57.57
2022-12-25T13:07:58.238Z,57.42
2022-12-25T13:10:34.161Z,57.41
2022-12-25T13:13:06.301Z,57.42
2022-12-25T13:15:35.596Z,57.24
2022-12-25T13:18:07.074Z,57.31
2022-12-25T13:20:40.353Z,57.04
2022-12-25T13:23:24.647Z,57.22
2022-12-25T13:26:00.530Z,57.00
2022-12-25T13:28:30.239Z,56.84
2022-12-25T13:31:07.287Z,56.97
2022-12-25T13:33:34.903Z,56.83
2022-12-25T13:36:02.560Z,57.06
2022-12-25T13:38:29.989Z,56.80
2022-12-25T13:41:17.626Z,56.70
2022-12-25T13:43:45.997Z,56.58
2022-12-25T13:46:15.172Z,56.79
2022-12-25T13:48:43.021Z,56.53
2022-12-25T13:51:16.268Z,56.54
2022-12-25T13:53:44.355Z,56.38
2022-12-25T13:56:16.291Z,56.35
2022-12-25T13:58:46.758Z,56.49
2022-12-25T14:01:16.459Z,56.38
2022-12-25T14:03:46.667Z,56.42
2022-12-25T14:06:31.291Z,56.49
2022-12-25T14:08:59.521Z,56.54
2022-12-25T14:11:29.562Z,56.21
2022-12-25T14:14:01.596Z,56.22
2022-12-25T14:16:29.381Z,56.25
2022-12-25T14:18:59.719Z,56.13
2022-12-25T14:21:38.608Z,56.16
2022-12-25T14:24:14.148Z,56.17
2022-12-25T14:26:42.036Z,56.33
2022-12-25T14:29:18.548Z,56.33
2022-12-25T14:31:47.725Z,56.44
2022-12-25T14:34:18.689Z,56.55
2022-12-25T14:36:46.647Z,56.47
2022-12-25T14:39:25.223Z,56.36
2022-12-25T14:41:53.716Z,56.35
2022-12-25T14:44:31.683Z,56.57
2022-12-25T14:47:11.358Z,56.61
2022-12-25T14:49:39.298Z,56.39
2022-12-25T14:52:38.859Z,56.46
2022-12-25T14:55:17.139Z,56.30
2022-12-25T14:57:49.080Z,56.38
2022-12-25T15:00:34.964Z,56.21
2022-12-25T15:03:05.883Z,56.35
2022-12-25T15:05:38.977Z,56.48
2022-12-25T15:08:12.295Z,56.25
2022-12-25T15:13:29.524Z,56.17
2022-12-25T15:16:04.211Z,56.37
2022-12-25T15:18:39.651Z,56.42
2022-12-25T15:21:09.678Z,56.27
2022-12-25T15:23:37.110Z,56.22
2022-12-25T15:26:04.517Z,56.12
2022-12-25T15:28:31.931Z,56.29
2022-12-25T15:30:59.376Z,56.10
2022-12-25T15:33:26.712Z,56.40
2022-12-25T15:35:54.242Z,56.10
2022-12-25T15:38:21.601Z,56.19
2022-12-25T15:40:49.016Z,56.15
2022-12-25T15:43:40.443Z,56.22
2022-12-25T15:46:04.197Z,55.97
2022-12-25T15:48:31.620Z,55.89
2022-12-25T15:50:58.976Z,55.99
2022-12-25T15:53:27.022Z,56.05
2022-12-25T15:55:54.431Z,55.99
2022-12-25T15:58:23.129Z,55.98
2022-12-25T16:00:50.788Z,55.99
2022-12-25T16:03:18.309Z,55.96
2022-12-25T16:05:45.749Z,55.94
2022-12-25T16:08:13.140Z,55.94
2022-12-25T16:10:40.607Z,56.06
2022-12-25T16:13:07.938Z,55.89
2022-12-25T16:15:35.503Z,55.87
2022-12-25T16:18:03.598Z,55.94
2022-12-25T16:20:31.086Z,55.92
2022-12-25T16:22:58.472Z,55.86
2022-12-25T16:25:25.973Z,56.00
2022-12-25T16:27:53.333Z,55.83
2022-12-25T16:30:20.720Z,55.83
2022-12-25T16:32:51.080Z,55.89
2022-12-25T16:35:18.582Z,55.83
2022-12-25T16:37:45.990Z,55.83
2022-12-25T16:40:13.430Z,55.95
2022-12-25T16:42:40.776Z,56.02
2022-12-25T16:45:08.418Z,56.07
2022-12-25T16:47:36.150Z,56.10
2022-12-25T16:50:05.135Z,56.08
2022-12-25T16:52:34.702Z,56.01
2022-12-25T16:55:03.059Z,55.95
2022-12-25T16:57:32.748Z,56.03
2022-12-25T17:00:00.194Z,56.01
2022-12-25T17:02:27.985Z,55.97
2022-12-25T17:04:55.431Z,56.05
2022-12-25T17:07:22.791Z,55.92
2022-12-25T17:09:50.219Z,56.03
2022-12-25T17:12:17.698Z,55.89
2022-12-25T17:14:45.159Z,55.95
2022-12-25T17:17:12.629Z,55.87
2022-12-25T17:19:40.009Z,55.88
2022-12-25T17:22:07.541Z,55.77
2022-12-25T17:24:37.347Z,55.58
2022-12-25T17:27:08.596Z,55.85
2022-12-25T17:29:36.906Z,55.93
2022-12-25T17:32:04.242Z,55.92
2022-12-25T17:34:31.601Z,55.81
2022-12-25T17:36:59.089Z,55.95
2022-12-25T17:39:26.584Z,55.90
2022-12-25T17:41:53.978Z,55.88
2022-12-25T17:44:21.663Z,55.67
2022-12-25T17:46:50.514Z,55.40
2022-12-25T17:49:20.602Z,56.01
2022-12-25T17:51:48.310Z,56.20
2022-12-25T17:54:15.855Z,56.13
2022-12-25T17:56:43.190Z,56.42
2022-12-25T17:59:18.126Z,56.50
2022-12-25T18:01:47.077Z,56.57
2022-12-25T18:04:14.843Z,56.82
2022-12-25T18:06:42.203Z,56.47
2022-12-25T18:09:11.293Z,56.65
2022-12-25T18:11:41.810Z,56.43
2022-12-25T18:14:12.498Z,56.51
2022-12-25T18:16:43.377Z,56.71
2022-12-25T18:19:12.275Z,56.35
2022-12-25T18:21:40.239Z,56.34
2022-12-25T18:24:08.559Z,56.07
2022-12-25T18:26:36.352Z,55.98
2022-12-25T18:29:04.359Z,56.24
2022-12-25T18:31:31.893Z,56.03
2022-12-25T18:34:00.493Z,56.10
2022-12-25T18:36:29.641Z,56.12
2022-12-25T18:38:57.965Z,55.91
2022-12-25T18:41:25.453Z,55.97
2022-12-25T18:43:55.596Z,55.82
2022-12-25T18:46:25.453Z,55.75
2022-12-25T18:48:55.107Z,55.71
2022-12-25T18:51:23.119Z,55.79
2022-12-25T18:53:51.346Z,55.34
2022-12-25T18:56:20.428Z,55.54
2022-12-25T18:58:48.120Z,55.67
2022-12-25T19:01:21.891Z,55.61
2022-12-25T19:03:50.801Z,55.50
2022-12-25T19:06:20.687Z,55.47
2022-12-25T19:08:48.453Z,55.58
2022-12-25T19:11:16.214Z,55.36
2022-12-25T19:13:44.497Z,55.47
2022-12-25T19:16:12.528Z,55.25
2022-12-25T19:18:40.178Z,55.57
2022-12-25T19:21:09.651Z,55.38
2022-12-25T19:23:38.134Z,55.27
2022-12-25T19:26:07.381Z,55.33
2022-12-25T19:28:35.366Z,54.98
2022-12-25T19:31:04.640Z,55.42
2022-12-25T19:33:32.619Z,55.38
2022-12-25T19:36:04.828Z,55.37
2022-12-25T19:38:32.754Z,55.32
2022-12-25T19:41:04.893Z,55.29
2022-12-25T19:43:36.089Z,55.45
2022-12-25T19:46:04.658Z,55.56
2022-12-25T19:48:33.975Z,55.30
2022-12-25T19:51:01.571Z,55.35
2022-12-25T19:53:30.212Z,55.08
2022-12-25T19:56:01.971Z,55.33
2022-12-25T19:58:29.965Z,55.38
2022-12-25T20:00:58.282Z,55.23
2022-12-25T20:03:26.732Z,55.13
2022-12-25T20:05:54.225Z,55.05
2022-12-25T20:08:21.576Z,55.11
2022-12-25T20:10:49.514Z,55.11
2022-12-25T20:13:17.518Z,55.20
2022-12-25T20:15:44.973Z,55.07
2022-12-25T20:18:12.390Z,55.03
2022-12-25T20:20:40.069Z,55.72
2022-12-25T20:23:07.531Z,55.95
2022-12-25T20:25:38.552Z,56.01
2022-12-25T20:28:06.003Z,56.10
2022-12-25T20:30:38.118Z,56.18
2022-12-25T20:33:05.656Z,56.39
2022-12-25T20:35:33.098Z,56.27
2022-12-25T20:38:00.396Z,56.28
2022-12-25T20:40:27.784Z,56.33
2022-12-25T20:42:55.652Z,56.33
2022-12-25T20:45:23.019Z,56.48
2022-12-25T20:47:50.571Z,56.24
2022-12-25T20:50:17.998Z,56.31
2022-12-25T20:52:45.432Z,56.13
2022-12-25T20:55:14.081Z,56.05
2022-12-25T20:57:41.616Z,56.14
2022-12-25T21:00:10.758Z,55.90
2022-12-25T21:02:38.590Z,55.68
2022-12-25T21:05:07.972Z,55.88
2022-12-25T21:07:35.335Z,55.80
2022-12-25T21:10:04.212Z,56.06
2022-12-25T21:12:31.690Z,56.18
2022-12-25T21:14:59.072Z,56.16
2022-12-25T21:17:26.908Z,56.13
2022-12-25T21:19:54.259Z,55.77
2022-12-25T21:22:21.583Z,56.05
2022-12-25T21:24:51.930Z,55.85
2022-12-25T21:27:19.342Z,55.80
2022-12-25T21:29:46.718Z,55.90
2022-12-25T21:32:32.766Z,56.06
2022-12-25T21:35:00.163Z,56.00
2022-12-25T21:37:27.498Z,55.83
2022-12-25T21:39:54.929Z,55.85
2022-12-25T21:42:22.283Z,55.69
2022-12-25T21:44:49.928Z,55.73
2022-12-25T21:47:17.292Z,55.81
2022-12-25T21:50:03.403Z,55.70
2022-12-25T21:52:30.819Z,55.79
2022-12-25T21:54:58.238Z,55.74
2022-12-25T21:57:26.035Z,55.55
2022-12-25T21:59:53.343Z,55.80
2022-12-25T22:02:20.807Z,55.71
2022-12-25T22:04:48.271Z,55.61
2022-12-25T22:07:18.656Z,55.66
2022-12-25T22:09:48.094Z,55.66
2022-12-25T22:12:35.600Z,55.54
2022-12-25T22:15:09.633Z,55.66
2022-12-25T22:17:58.873Z,55.63
2022-12-25T22:20:30.761Z,55.47
2022-12-25T22:22:58.436Z,55.92
2022-12-25T22:25:26.579Z,55.72
2022-12-25T22:27:54.203Z,55.73
2022-12-25T22:30:24.231Z,55.50
2022-12-25T22:32:52.388Z,55.66
2022-12-25T22:35:20.472Z,55.64
2022-12-25T22:37:48.329Z,55.59
2022-12-25T22:40:17.983Z,55.84
2022-12-25T22:42:45.394Z,55.82
2022-12-25T22:45:12.932Z,55.39
2022-12-25T22:47:41.047Z,55.10
2022-12-25T22:50:09.509Z,55.50
2022-12-25T22:52:37.431Z,55.48
2022-12-25T22:55:05.933Z,55.53
2022-12-25T22:57:33.410Z,55.68
2022-12-25T23:00:00.942Z,55.39
2022-12-25T23:02:28.852Z,55.55
2022-12-25T23:04:56.393Z,55.59
2022-12-25T23:07:23.803Z,55.38
2022-12-25T23:09:52.628Z,55.63
2022-12-25T23:12:39.193Z,55.78
2022-12-25T23:15:07.119Z,56.06
2022-12-25T23:17:53.192Z,56.18
2022-12-25T23:20:39.400Z,56.26
2022-12-25T23:23:25.381Z,56.41
2022-12-25T23:26:07.791Z,56.19
2022-12-25T23:28:56.209Z,56.47
2022-12-25T23:31:28.454Z,56.23
2022-12-25T23:33:56.104Z,56.11
2022-12-25T23:36:23.702Z,56.39
2022-12-25T23:38:51.110Z,56.41
2022-12-25T23:41:19.256Z,56.28
2022-12-25T23:43:46.696Z,56.26
2022-12-25T23:46:14.189Z,56.37
2022-12-25T23:48:41.727Z,56.35
2022-12-25T23:51:09.142Z,56.41
2022-12-25T23:53:36.566Z,56.35
2022-12-25T23:56:04.143Z,56.21
2022-12-25T23:58:33.055Z,56.61
